Terminal Aerodrome Forecast
Issued by NWS Duluth, MN

Home | Current Version | Previous Version | Text Only | Print | Product List | Glossary On
Versions: 1 2 3 4 5 6 7 8 9 10 11 12 13 14 15 16
000
FTUS43 KDLH 281900 AAA
TAFINL
TAF AMD
KINL 281941Z 2820/0118 20012G20KT P6SM SCT100
     FM010000 20012KT P6SM VCSH SCT035 BKN080
     FM010300 22008KT P6SM -SN SCT012 BKN025
     FM011000 25006KT P6SM SCT025
     FM011600 27010KT P6SM SCT035=

USA.gov is the U.S. government's official web portal to all federal, state and local government web resources and services.